sensor_id;sensor_type;location;lat;lon;timestamp;pressure;altitude;pressure_sealevel;temperature;humidity
4814;BME280;15375;48.540;9.268;2023-02-13T00:01:01;99227.88;;;-0.57;100.00
4814;BME280;15375;48.540;9.268;2023-02-13T00:03:26;99215.88;;;-0.59;100.00
4814;BME280;15375;48.540;9.268;2023-02-13T00:05:52;99216.66;;;-0.73;100.00
4814;BME280;15375;48.540;9.268;2023-02-13T00:08:17;99209.31;;;-0.67;100.00
4814;BME280;15375;48.540;9.268;2023-02-13T00:10:42;99232.16;;;-0.70;100.00
4814;BME280;15375;48.540;9.268;2023-02-13T00:13:08;99214.09;;;-0.78;100.00
4814;BME280;15375;48.540;9.268;2023-02-13T00:15:33;99211.50;;;-0.69;100.00
4814;BME280;15375;48.540;9.268;2023-02-13T00:17:59;99201.38;;;-0.72;100.00
4814;BME280;15375;48.540;9.268;2023-02-13T00:20:24;99195.63;;;-0.93;100.00
4814;BME280;15375;48.540;9.268;2023-02-13T00:22:49;99186.47;;;-1.05;100.00
4814;BME280;15375;48.540;9.268;2023-02-13T00:25:15;99224.72;;;-0.86;100.00
4814;BME280;15375;48.540;9.268;2023-02-13T00:27:40;99208.63;;;-1.00;100.00
4814;BME280;15375;48.540;9.268;2023-02-13T00:30:06;99226.00;;;-0.84;100.00
4814;BME280;15375;48.540;9.268;2023-02-13T00:32:31;99222.84;;;-0.86;100.00
4814;BME280;15375;48.540;9.268;2023-02-13T00:34:57;99225.59;;;-0.91;100.00
4814;BME280;15375;48.540;9.268;2023-02-13T00:37:23;99227.56;;;-0.83;100.00
4814;BME280;15375;48.540;9.268;2023-02-13T00:39:49;99209.72;;;-0.87;100.00
4814;BME280;15375;48.540;9.268;2023-02-13T00:42:14;99208.91;;;-0.88;100.00
4814;BME280;15375;48.540;9.268;2023-02-13T00:44:40;99209.13;;;-0.84;100.00
4814;BME280;15375;48.540;9.268;2023-02-13T00:47:05;99202.19;;;-0.85;100.00
4814;BME280;15375;48.540;9.268;2023-02-13T00:49:30;99223.22;;;-0.65;100.00
4814;BME280;15375;48.540;9.268;2023-02-13T00:51:56;99211.53;;;-0.55;100.00
4814;BME280;15375;48.540;9.268;2023-02-13T00:54:21;99212.13;;;-0.58;100.00
4814;BME280;15375;48.540;9.268;2023-02-13T00:56:46;99220.84;;;-0.53;100.00
4814;BME280;15375;48.540;9.268;2023-02-13T00:59:11;99211.91;;;-0.62;100.00
4814;BME280;15375;48.540;9.268;2023-02-13T01:01:37;99210.03;;;-0.61;100.00
4814;BME280;15375;48.540;9.268;2023-02-13T01:04:02;99215.06;;;-0.60;100.00
4814;BME280;15375;48.540;9.268;2023-02-13T01:06:28;99213.69;;;-0.57;100.00
4814;BME280;15375;48.540;9.268;2023-02-13T01:08:53;99210.13;;;-0.67;100.00
4814;BME280;15375;48.540;9.268;2023-02-13T01:11:18;99217.56;;;-0.63;100.00
4814;BME280;15375;48.540;9.268;2023-02-13T01:13:44;99207.75;;;-0.82;100.00
4814;BME280;15375;48.540;9.268;2023-02-13T01:16:10;99204.19;;;-0.91;100.00
4814;BME280;15375;48.540;9.268;2023-02-13T01:18:35;99220.81;;;-0.80;100.00
4814;BME280;15375;48.540;9.268;2023-02-13T01:21:03;99210.13;;;-0.80;100.00
4814;BME280;15375;48.540;9.268;2023-02-13T01:23:31;99217.16;;;-0.84;100.00
4814;BME280;15375;48.540;9.268;2023-02-13T01:25:57;99215.88;;;-0.87;100.00
4814;BME280;15375;48.540;9.268;2023-02-13T01:28:22;99199.19;;;-0.97;100.00
4814;BME280;15375;48.540;9.268;2023-02-13T01:30:52;99196.25;;;-0.96;100.00
4814;BME280;15375;48.540;9.268;2023-02-13T01:33:18;99221.44;;;-0.83;100.00
4814;BME280;15375;48.540;9.268;2023-02-13T01:35:43;99214.59;;;-0.76;100.00
4814;BME280;15375;48.540;9.268;2023-02-13T01:38:08;99218.06;;;-0.75;100.00
4814;BME280;15375;48.540;9.268;2023-02-13T01:40:34;99214.19;;;-0.83;100.00
4814;BME280;15375;48.540;9.268;2023-02-13T01:42:59;99205.56;;;-0.93;100.00
4814;BME280;15375;48.540;9.268;2023-02-13T01:45:27;99218.66;;;-0.92;100.00
4814;BME280;15375;48.540;9.268;2023-02-13T01:47:57;99214.59;;;-0.89;100.00
4814;BME280;15375;48.540;9.268;2023-02-13T01:52:57;99192.06;;;-1.02;100.00
4814;BME280;15375;48.540;9.268;2023-02-13T01:55:25;99207.53;;;-0.99;100.00
4814;BME280;15375;48.540;9.268;2023-02-13T01:58:02;99209.72;;;-1.01;100.00
4814;BME280;15375;48.540;9.268;2023-02-13T02:00:29;99203.84;;;-1.03;100.00
4814;BME280;15375;48.540;9.268;2023-02-13T02:03:01;99199.69;;;-1.09;100.00
4814;BME280;15375;48.540;9.268;2023-02-13T02:05:30;99204.47;;;-1.06;100.00
4814;BME280;15375;48.540;9.268;2023-02-13T02:07:59;99195.13;;;-1.08;100.00
4814;BME280;15375;48.540;9.268;2023-02-13T02:10:26;99199.78;;;-1.14;100.00
4814;BME280;15375;48.540;9.268;2023-02-13T02:13:31;99210.50;;;-1.14;100.00
4814;BME280;15375;48.540;9.268;2023-02-13T02:15:51;99189.25;;;-1.24;100.00
4814;BME280;15375;48.540;9.268;2023-02-13T02:18:22;99209.56;;;-1.23;100.00
4814;BME280;15375;48.540;9.268;2023-02-13T02:26:51;99188.50;;;-1.43;100.00
4814;BME280;15375;48.540;9.268;2023-02-13T02:35:02;99207.16;;;-1.38;100.00
4814;BME280;15375;48.540;9.268;2023-02-13T02:40:34;99198.44;;;-1.44;100.00
4814;BME280;15375;48.540;9.268;2023-02-13T02:53:58;99214.41;;;-1.39;100.00
4814;BME280;15375;48.540;9.268;2023-02-13T02:56:35;99188.75;;;-1.58;100.00
4814;BME280;15375;48.540;9.268;2023-02-13T02:59:05;99217.03;;;-1.52;100.00
4814;BME280;15375;48.540;9.268;2023-02-13T03:01:52;99212.34;;;-1.60;100.00
4814;BME280;15375;48.540;9.268;2023-02-13T03:04:40;99208.94;;;-1.66;100.00
4814;BME280;15375;48.540;9.268;2023-02-13T03:07:26;99197.16;;;-1.65;100.00
4814;BME280;15375;48.540;9.268;2023-02-13T03:09:55;99213.88;;;-1.54;100.00
4814;BME280;15375;48.540;9.268;2023-02-13T03:13:12;99215.50;;;-1.58;100.00
4814;BME280;15375;48.540;9.268;2023-02-13T03:15:47;99219.00;;;-1.58;100.00
4814;BME280;15375;48.540;9.268;2023-02-13T03:18:36;99226.03;;;-1.62;100.00
4814;BME280;15375;48.540;9.268;2023-02-13T03:21:47;99219.88;;;-1.62;100.00
4814;BME280;15375;48.540;9.268;2023-02-13T03:27:08;99223.63;;;-1.63;100.00
4814;BME280;15375;48.540;9.268;2023-02-13T03:30:02;99234.13;;;-1.67;100.00
4814;BME280;15375;48.540;9.268;2023-02-13T03:37:54;99245.78;;;-1.76;100.00
4814;BME280;15375;48.540;9.268;2023-02-13T03:40:49;99251.81;;;-1.71;100.00
4814;BME280;15375;48.540;9.268;2023-02-13T03:43:44;99248.56;;;-1.68;100.00
4814;BME280;15375;48.540;9.268;2023-02-13T03:46:15;99233.97;;;-1.75;100.00
4814;BME280;15375;48.540;9.268;2023-02-13T03:48:44;99241.44;;;-1.72;100.00
4814;BME280;15375;48.540;9.268;2023-02-13T03:54:48;99258.06;;;-1.75;100.00
4814;BME280;15375;48.540;9.268;2023-02-13T03:57:36;99258.47;;;-1.68;100.00
4814;BME280;15375;48.540;9.268;2023-02-13T04:00:24;99257.97;;;-1.70;100.00
4814;BME280;15375;48.540;9.268;2023-02-13T04:03:23;99259.34;;;-1.73;100.00
4814;BME280;15375;48.540;9.268;2023-02-13T04:06:01;99239.47;;;-1.85;100.00
4814;BME280;15375;48.540;9.268;2023-02-13T04:08:28;99250.41;;;-1.82;100.00
4814;BME280;15375;48.540;9.268;2023-02-13T04:11:04;99232.09;;;-1.94;100.00
4814;BME280;15375;48.540;9.268;2023-02-13T04:13:33;99248.59;;;-1.86;100.00
4814;BME280;15375;48.540;9.268;2023-02-13T04:16:32;99234.56;;;-1.97;100.00
4814;BME280;15375;48.540;9.268;2023-02-13T04:18:56;99229.06;;;-2.06;100.00
4814;BME280;15375;48.540;9.268;2023-02-13T04:21:23;99241.06;;;-2.03;100.00
4814;BME280;15375;48.540;9.268;2023-02-13T04:23:48;99244.09;;;-1.91;100.00
4814;BME280;15375;48.540;9.268;2023-02-13T04:26:16;99259.31;;;-1.86;100.00
4814;BME280;15375;48.540;9.268;2023-02-13T04:28:42;99242.31;;;-1.96;100.00
4814;BME280;15375;48.540;9.268;2023-02-13T04:31:09;99225.03;;;-2.03;100.00
4814;BME280;15375;48.540;9.268;2023-02-13T04:33:34;99250.25;;;-1.90;100.00
4814;BME280;15375;48.540;9.268;2023-02-13T04:35:59;99234.28;;;-1.96;100.00
4814;BME280;15375;48.540;9.268;2023-02-13T04:38:25;99258.28;;;-1.90;100.00
4814;BME280;15375;48.540;9.268;2023-02-13T04:40:50;99245.78;;;-1.95;100.00
4814;BME280;15375;48.540;9.268;2023-02-13T04:43:15;99231.44;;;-2.23;100.00
4814;BME280;15375;48.540;9.268;2023-02-13T04:45:41;99242.38;;;-2.19;100.00
4814;BME280;15375;48.540;9.268;2023-02-13T04:48:06;99215.91;;;-2.39;100.00
4814;BME280;15375;48.540;9.268;2023-02-13T04:50:31;99219.28;;;-2.34;100.00
4814;BME280;15375;48.540;9.268;2023-02-13T04:52:57;99246.34;;;-2.17;100.00
4814;BME280;15375;48.540;9.268;2023-02-13T04:55:24;99244.31;;;-2.25;100.00
4814;BME280;15375;48.540;9.268;2023-02-13T04:57:53;99233.63;;;-2.25;100.00
4814;BME280;15375;48.540;9.268;2023-02-13T05:00:21;99241.06;;;-2.22;100.00
4814;BME280;15375;48.540;9.268;2023-02-13T05:02:46;99235.13;;;-2.37;100.00
4814;BME280;15375;48.540;9.268;2023-02-13T05:05:12;99234.31;;;-2.38;100.00
4814;BME280;15375;48.540;9.268;2023-02-13T05:07:37;99232.66;;;-2.34;100.00
4814;BME280;15375;48.540;9.268;2023-02-13T05:10:03;99222.09;;;-2.44;100.00
4814;BME280;15375;48.540;9.268;2023-02-13T05:12:28;99264.03;;;-2.21;100.00
4814;BME280;15375;48.540;9.268;2023-02-13T05:14:53;99261.78;;;-2.14;100.00
4814;BME280;15375;48.540;9.268;2023-02-13T05:17:19;99254.00;;;-2.10;100.00
4814;BME280;15375;48.540;9.268;2023-02-13T05:19:44;99269.41;;;-2.02;100.00
4814;BME280;15375;48.540;9.268;2023-02-13T05:22:09;99268.03;;;-2.00;100.00
4814;BME280;15375;48.540;9.268;2023-02-13T05:24:53;99262.47;;;-2.03;100.00
4814;BME280;15375;48.540;9.268;2023-02-13T05:27:18;99266.66;;;-1.97;100.00
4814;BME280;15375;48.540;9.268;2023-02-13T05:29:44;99263.75;;;-2.01;100.00
4814;BME280;15375;48.540;9.268;2023-02-13T05:32:09;99259.06;;;-2.09;100.00
4814;BME280;15375;48.540;9.268;2023-02-13T05:34:34;99266.66;;;-1.97;100.00
4814;BME280;15375;48.540;9.268;2023-02-13T05:37:00;99264.34;;;-2.04;100.00
4814;BME280;15375;48.540;9.268;2023-02-13T05:39:25;99273.81;;;-1.92;100.00
4814;BME280;15375;48.540;9.268;2023-02-13T05:41:50;99257.34;;;-2.00;100.00
4814;BME280;15375;48.540;9.268;2023-02-13T05:44:16;99263.25;;;-2.03;100.00
4814;BME280;15375;48.540;9.268;2023-02-13T05:46:42;99265.69;;;-2.06;100.00
4814;BME280;15375;48.540;9.268;2023-02-13T05:49:09;99276.31;;;-2.01;100.00
4814;BME280;15375;48.540;9.268;2023-02-13T05:51:35;99251.91;;;-2.13;100.00
4814;BME280;15375;48.540;9.268;2023-02-13T05:54:00;99265.78;;;-2.11;100.00
4814;BME280;15375;48.540;9.268;2023-02-13T05:56:26;99255.69;;;-2.14;100.00
4814;BME280;15375;48.540;9.268;2023-02-13T05:58:55;99270.28;;;-2.07;100.00
4814;BME280;15375;48.540;9.268;2023-02-13T06:01:22;99267.31;;;-2.05;100.00
4814;BME280;15375;48.540;9.268;2023-02-13T06:03:47;99258.06;;;-2.13;100.00
4814;BME280;15375;48.540;9.268;2023-02-13T06:06:13;99269.41;;;-2.02;100.00
4814;BME280;15375;48.540;9.268;2023-02-13T06:08:39;99262.81;;;-2.10;100.00
4814;BME280;15375;48.540;9.268;2023-02-13T06:11:04;99267.59;;;-2.07;100.00
4814;BME280;15375;48.540;9.268;2023-02-13T06:13:30;99241.63;;;-2.25;100.00
4814;BME280;15375;48.540;9.268;2023-02-13T06:15:55;99269.75;;;-2.09;100.00
4814;BME280;15375;48.540;9.268;2023-02-13T06:18:21;99280.91;;;-2.02;100.00
4814;BME280;15375;48.540;9.268;2023-02-13T06:20:46;99271.72;;;-2.14;100.00
4814;BME280;15375;48.540;9.268;2023-02-13T06:23:12;99262.53;;;-2.27;100.00
4814;BME280;15375;48.540;9.268;2023-02-13T06:25:37;99258.38;;;-2.38;100.00
4814;BME280;15375;48.540;9.268;2023-02-13T06:28:04;99273.41;;;-2.23;100.00
4814;BME280;15375;48.540;9.268;2023-02-13T06:30:29;99272.41;;;-2.27;100.00
4814;BME280;15375;48.540;9.268;2023-02-13T06:32:55;99283.25;;;-2.19;100.00
4814;BME280;15375;48.540;9.268;2023-02-13T06:35:20;99269.81;;;-2.32;100.00
4814;BME280;15375;48.540;9.268;2023-02-13T06:37:45;99288.66;;;-2.24;100.00
4814;BME280;15375;48.540;9.268;2023-02-13T06:40:13;99277.75;;;-2.27;100.00
4814;BME280;15375;48.540;9.268;2023-02-13T06:42:38;99266.31;;;-2.33;100.00
4814;BME280;15375;48.540;9.268;2023-02-13T06:45:05;99283.25;;;-2.19;100.00
4814;BME280;15375;48.540;9.268;2023-02-13T06:47:30;99281.22;;;-2.27;100.00
4814;BME280;15375;48.540;9.268;2023-02-13T06:49:55;99267.47;;;-2.39;100.00
4814;BME280;15375;48.540;9.268;2023-02-13T06:52:21;99266.38;;;-2.38;100.00
4814;BME280;15375;48.540;9.268;2023-02-13T06:54:46;99271.97;;;-2.34;100.00
4814;BME280;15375;48.540;9.268;2023-02-13T06:57:12;99292.88;;;-2.18;100.00
4814;BME280;15375;48.540;9.268;2023-02-13T06:59:37;99286.16;;;-2.15;100.00
4814;BME280;15375;48.540;9.268;2023-02-13T07:02:02;99287.75;;;-2.14;100.00
4814;BME280;15375;48.540;9.268;2023-02-13T07:04:28;99293.75;;;-2.04;100.00
4814;BME280;15375;48.540;9.268;2023-02-13T07:06:54;99285.84;;;-2.14;100.00
4814;BME280;15375;48.540;9.268;2023-02-13T07:09:21;99279.13;;;-2.11;100.00
4814;BME280;15375;48.540;9.268;2023-02-13T07:11:47;99287.50;;;-1.94;100.00
4814;BME280;15375;48.540;9.268;2023-02-13T07:14:12;99278.88;;;-1.91;100.00
4814;BME280;15375;48.540;9.268;2023-02-13T07:16:38;99284.38;;;-1.82;100.00
4814;BME280;15375;48.540;9.268;2023-02-13T07:19:03;99292.50;;;-1.69;100.00
4814;BME280;15375;48.540;9.268;2023-02-13T07:21:28;99298.19;;;-1.57;100.00
4814;BME280;15375;48.540;9.268;2023-02-13T07:23:53;99300.41;;;-1.45;100.00
4814;BME280;15375;48.540;9.268;2023-02-13T07:26:19;99303.28;;;-1.23;100.00
4814;BME280;15375;48.540;9.268;2023-02-13T07:28:44;99313.28;;;-0.96;100.00
4814;BME280;15375;48.540;9.268;2023-02-13T07:31:10;99295.66;;;-0.84;100.00
4814;BME280;15375;48.540;9.268;2023-02-13T07:33:36;99295.78;;;-0.61;100.00
4814;BME280;15375;48.540;9.268;2023-02-13T07:36:02;99318.34;;;-0.35;100.00
4814;BME280;15375;48.540;9.268;2023-02-13T07:38:31;99304.84;;;-0.30;100.00
4814;BME280;15375;48.540;9.268;2023-02-13T07:40:58;99306.31;;;-0.24;100.00
4814;BME280;15375;48.540;9.268;2023-02-13T07:43:23;99279.00;;;-0.26;100.00
4814;BME280;15375;48.540;9.268;2023-02-13T07:45:49;99312.59;;;-0.15;100.00
4814;BME280;15375;48.540;9.268;2023-02-13T07:48:14;99303.81;;;-0.07;100.00
4814;BME280;15375;48.540;9.268;2023-02-13T07:50:39;99314.22;;;0.08;100.00
4814;BME280;15375;48.540;9.268;2023-02-13T07:53:05;99291.72;;;0.31;100.00
4814;BME280;15375;48.540;9.268;2023-02-13T07:55:30;99306.19;;;0.57;100.00
4814;BME280;15375;48.540;9.268;2023-02-13T07:57:58;99302.31;;;0.94;100.00
4814;BME280;15375;48.540;9.268;2023-02-13T08:00:24;99313.81;;;1.39;100.00
4814;BME280;15375;48.540;9.268;2023-02-13T08:02:49;99306.50;;;1.70;100.00
4814;BME280;15375;48.540;9.268;2023-02-13T08:05:15;99285.66;;;1.84;100.00
4814;BME280;15375;48.540;9.268;2023-02-13T08:07:40;99294.16;;;2.26;100.00
4814;BME280;15375;48.540;9.268;2023-02-13T08:10:07;99284.94;;;2.27;100.00
4814;BME280;15375;48.540;9.268;2023-02-13T08:12:52;99309.22;;;2.61;100.00
4814;BME280;15375;48.540;9.268;2023-02-13T08:15:18;99296.38;;;2.84;100.00
4814;BME280;15375;48.540;9.268;2023-02-13T08:17:44;99301.28;;;2.99;100.00
4814;BME280;15375;48.540;9.268;2023-02-13T08:20:10;99310.00;;;2.96;100.00
4814;BME280;15375;48.540;9.268;2023-02-13T08:22:36;99302.78;;;3.26;100.00
4814;BME280;15375;48.540;9.268;2023-02-13T08:25:03;99308.75;;;3.57;100.00
4814;BME280;15375;48.540;9.268;2023-02-13T08:27:28;99306.41;;;3.84;98.65
4814;BME280;15375;48.540;9.268;2023-02-13T08:29:55;99299.28;;;4.09;98.22
4814;BME280;15375;48.540;9.268;2023-02-13T08:32:20;99278.81;;;4.29;94.73
4814;BME280;15375;48.540;9.268;2023-02-13T08:34:46;99292.53;;;4.44;94.09
4814;BME280;15375;48.540;9.268;2023-02-13T08:37:11;99287.31;;;4.60;91.04
4814;BME280;15375;48.540;9.268;2023-02-13T08:39:36;99295.47;;;4.72;90.43
4814;BME280;15375;48.540;9.268;2023-02-13T08:42:02;99284.84;;;4.88;89.38
4814;BME280;15375;48.540;9.268;2023-02-13T08:44:27;99281.22;;;4.84;88.31
4814;BME280;15375;48.540;9.268;2023-02-13T08:46:53;99287.88;;;5.19;86.15
4814;BME280;15375;48.540;9.268;2023-02-13T08:49:18;99273.22;;;5.20;85.80
4814;BME280;15375;48.540;9.268;2023-02-13T08:51:43;99288.03;;;5.35;86.35
4814;BME280;15375;48.540;9.268;2023-02-13T08:54:09;99290.38;;;5.36;85.85
4814;BME280;15375;48.540;9.268;2023-02-13T08:56:34;99291.78;;;5.66;85.48
4814;BME280;15375;48.540;9.268;2023-02-13T08:59:00;99284.59;;;6.19;84.78
4814;BME280;15375;48.540;9.268;2023-02-13T09:01:25;99282.66;;;6.31;81.36
4814;BME280;15375;48.540;9.268;2023-02-13T09:03:51;99281.41;;;6.41;81.31
4814;BME280;15375;48.540;9.268;2023-02-13T09:06:16;99270.06;;;6.51;80.53
4814;BME280;15375;48.540;9.268;2023-02-13T09:08:42;99261.31;;;6.30;80.43
4814;BME280;15375;48.540;9.268;2023-02-13T09:11:08;99279.84;;;5.67;83.94
4814;BME280;15375;48.540;9.268;2023-02-13T09:13:35;99278.00;;;6.32;83.20
4814;BME280;15375;48.540;9.268;2023-02-13T09:16:03;99278.38;;;6.70;79.61
4814;BME280;15375;48.540;9.268;2023-02-13T09:18:29;99260.66;;;6.88;78.47
4814;BME280;15375;48.540;9.268;2023-02-13T09:21:21;99274.03;;;6.81;78.77
4814;BME280;15375;48.540;9.268;2023-02-13T09:23:48;99247.03;;;7.00;78.03
4814;BME280;15375;48.540;9.268;2023-02-13T09:26:15;99263.56;;;7.39;76.51
4814;BME280;15375;48.540;9.268;2023-02-13T09:28:41;99253.94;;;7.57;74.54
4814;BME280;15375;48.540;9.268;2023-02-13T09:31:09;99248.66;;;7.95;75.51
4814;BME280;15375;48.540;9.268;2023-02-13T09:33:35;99257.53;;;8.11;75.37
4814;BME280;15375;48.540;9.268;2023-02-13T09:36:09;99264.56;;;8.12;73.00
4814;BME280;15375;48.540;9.268;2023-02-13T09:38:34;99253.72;;;7.97;74.53
4814;BME280;15375;48.540;9.268;2023-02-13T09:41:03;99258.78;;;8.49;71.59
4814;BME280;15375;48.540;9.268;2023-02-13T09:43:36;99253.28;;;8.45;70.31
4814;BME280;15375;48.540;9.268;2023-02-13T09:46:20;99251.78;;;8.48;72.32
4814;BME280;15375;48.540;9.268;2023-02-13T09:48:52;99261.38;;;8.80;70.68
4814;BME280;15375;48.540;9.268;2023-02-13T09:51:19;99254.56;;;9.09;69.64
4814;BME280;15375;48.540;9.268;2023-02-13T09:54:13;99260.13;;;9.16;70.24
4814;BME280;15375;48.540;9.268;2023-02-13T09:56:54;99260.56;;;9.63;65.73
4814;BME280;15375;48.540;9.268;2023-02-13T09:59:52;99270.34;;;8.26;70.02
4814;BME280;15375;48.540;9.268;2023-02-13T10:07:47;99263.50;;;8.32;68.69
4814;BME280;15375;48.540;9.268;2023-02-13T10:15:47;99263.59;;;10.30;63.47
4814;BME280;15375;48.540;9.268;2023-02-13T10:18:19;99278.03;;;9.85;66.83
4814;BME280;15375;48.540;9.268;2023-02-13T10:20:49;99272.09;;;10.02;66.71
4814;BME280;15375;48.540;9.268;2023-02-13T10:23:45;99267.59;;;9.87;65.35
4814;BME280;15375;48.540;9.268;2023-02-13T10:26:21;99270.72;;;9.89;66.06
4814;BME280;15375;48.540;9.268;2023-02-13T10:29:05;99270.81;;;9.05;66.72
4814;BME280;15375;48.540;9.268;2023-02-13T10:31:51;99262.09;;;9.60;66.39
4814;BME280;15375;48.540;9.268;2023-02-13T10:34:21;99270.13;;;10.25;65.09
4814;BME280;15375;48.540;9.268;2023-02-13T10:36:48;99252.25;;;10.05;62.52
4814;BME280;15375;48.540;9.268;2023-02-13T10:41:49;99262.66;;;10.48;62.77
4814;BME280;15375;48.540;9.268;2023-02-13T10:47:24;99258.56;;;10.95;60.37
4814;BME280;15375;48.540;9.268;2023-02-13T10:49:51;99255.44;;;10.07;63.39
4814;BME280;15375;48.540;9.268;2023-02-13T10:55:35;99247.75;;;10.72;60.16
4814;BME280;15375;48.540;9.268;2023-02-13T11:03:40;99239.72;;;11.23;57.63
4814;BME280;15375;48.540;9.268;2023-02-13T11:06:10;99244.38;;;10.82;60.05
4814;BME280;15375;48.540;9.268;2023-02-13T11:08:41;99244.56;;;10.10;61.76
4814;BME280;15375;48.540;9.268;2023-02-13T11:14:21;99229.09;;;11.54;58.55
4814;BME280;15375;48.540;9.268;2023-02-13T11:19:28;99228.53;;;11.35;57.90
4814;BME280;15375;48.540;9.268;2023-02-13T11:22:12;99216.47;;;11.83;55.70
4814;BME280;15375;48.540;9.268;2023-02-13T11:24:40;99230.25;;;11.10;58.29
4814;BME280;15375;48.540;9.268;2023-02-13T11:27:10;99226.94;;;10.94;59.86
4814;BME280;15375;48.540;9.268;2023-02-13T11:29:57;99211.72;;;11.33;58.83
4814;BME280;15375;48.540;9.268;2023-02-13T11:32:26;99211.47;;;11.45;56.32
4814;BME280;15375;48.540;9.268;2023-02-13T11:34:52;99226.66;;;11.02;58.00
4814;BME280;15375;48.540;9.268;2023-02-13T11:37:23;99220.88;;;11.11;60.10
4814;BME280;15375;48.540;9.268;2023-02-13T11:39:51;99222.94;;;10.21;60.86
4814;BME280;15375;48.540;9.268;2023-02-13T11:42:35;99210.56;;;10.60;61.14
4814;BME280;15375;48.540;9.268;2023-02-13T11:45:20;99206.22;;;10.89;60.08
4814;BME280;15375;48.540;9.268;2023-02-13T11:47:47;99204.69;;;9.99;61.83
4814;BME280;15375;48.540;9.268;2023-02-13T11:50:20;99221.94;;;10.66;62.36
4814;BME280;15375;48.540;9.268;2023-02-13T11:52:59;99194.41;;;11.15;60.00
4814;BME280;15375;48.540;9.268;2023-02-13T11:55:31;99213.22;;;10.86;59.67
4814;BME280;15375;48.540;9.268;2023-02-13T11:58:02;99209.44;;;10.65;60.56
4814;BME280;15375;48.540;9.268;2023-02-13T12:00:34;99213.28;;;10.57;61.42
4814;BME280;15375;48.540;9.268;2023-02-13T12:06:02;99219.59;;;10.08;62.27
4814;BME280;15375;48.540;9.268;2023-02-13T12:08:29;99213.06;;;9.87;62.71
4814;BME280;15375;48.540;9.268;2023-02-13T12:10:56;99216.91;;;9.59;64.97
4814;BME280;15375;48.540;9.268;2023-02-13T12:13:28;99214.63;;;8.93;66.82
4814;BME280;15375;48.540;9.268;2023-02-13T12:16:02;99225.03;;;9.33;66.18
4814;BME280;15375;48.540;9.268;2023-02-13T12:18:33;99216.78;;;9.52;67.27
4814;BME280;15375;48.540;9.268;2023-02-13T12:26:22;99212.22;;;9.56;65.58
4814;BME280;15375;48.540;9.268;2023-02-13T12:31:52;99216.38;;;9.50;67.24
4814;BME280;15375;48.540;9.268;2023-02-13T12:34:46;99213.84;;;9.87;66.70
4814;BME280;15375;48.540;9.268;2023-02-13T12:45:37;99195.81;;;9.79;66.32
4814;BME280;15375;48.540;9.268;2023-02-13T12:56:38;99200.81;;;9.51;66.23
4814;BME280;15375;48.540;9.268;2023-02-13T13:02:10;99204.69;;;9.05;68.73
4814;BME280;15375;48.540;9.268;2023-02-13T13:05:16;99199.66;;;9.29;67.59
4814;BME280;15375;48.540;9.268;2023-02-13T13:10:53;99197.34;;;9.77;65.73
4814;BME280;15375;48.540;9.268;2023-02-13T13:13:25;99188.41;;;9.53;66.28
4814;BME280;15375;48.540;9.268;2023-02-13T13:16:01;99191.75;;;9.43;67.36
4814;BME280;15375;48.540;9.268;2023-02-13T13:23:57;99177.94;;;8.87;69.35
4814;BME280;15375;48.540;9.268;2023-02-13T13:26:46;99171.72;;;8.87;69.64
4814;BME280;15375;48.540;9.268;2023-02-13T13:29:18;99168.41;;;9.20;68.28
4814;BME280;15375;48.540;9.268;2023-02-13T13:31:51;99162.94;;;9.20;67.72
4814;BME280;15375;48.540;9.268;2023-02-13T13:34:22;99164.56;;;9.24;67.85
4814;BME280;15375;48.540;9.268;2023-02-13T13:37:13;99167.72;;;9.49;67.21
4814;BME280;15375;48.540;9.268;2023-02-13T13:39:47;99177.66;;;9.15;66.76
4814;BME280;15375;48.540;9.268;2023-02-13T13:48:08;99176.25;;;9.25;66.15
4814;BME280;15375;48.540;9.268;2023-02-13T13:50:41;99162.72;;;9.28;66.73
4814;BME280;15375;48.540;9.268;2023-02-13T13:53:13;99170.00;;;9.47;66.59
4814;BME280;15375;48.540;9.268;2023-02-13T13:56:00;99173.13;;;9.23;65.24
4814;BME280;15375;48.540;9.268;2023-02-13T13:58:41;99159.81;;;8.95;67.02
4814;BME280;15375;48.540;9.268;2023-02-13T14:03:42;99168.34;;;8.93;67.52
4814;BME280;15375;48.540;9.268;2023-02-13T14:06:11;99171.69;;;9.06;67.24
4814;BME280;15375;48.540;9.268;2023-02-13T14:17:00;99178.06;;;9.17;68.52
4814;BME280;15375;48.540;9.268;2023-02-13T14:19:36;99182.13;;;9.04;67.86
4814;BME280;15375;48.540;9.268;2023-02-13T14:24:55;99167.84;;;8.88;69.48
4814;BME280;15375;48.540;9.268;2023-02-13T14:27:27;99173.56;;;8.60;69.76
4814;BME280;15375;48.540;9.268;2023-02-13T14:29:54;99160.59;;;8.54;69.74
4814;BME280;15375;48.540;9.268;2023-02-13T14:32:33;99169.31;;;8.63;70.43
4814;BME280;15375;48.540;9.268;2023-02-13T14:35:02;99157.03;;;8.50;70.04
4814;BME280;15375;48.540;9.268;2023-02-13T14:37:36;99161.56;;;8.07;72.61
4814;BME280;15375;48.540;9.268;2023-02-13T14:42:41;99168.72;;;8.15;72.96
4814;BME280;15375;48.540;9.268;2023-02-13T14:45:14;99176.41;;;8.29;72.83
4814;BME280;15375;48.540;9.268;2023-02-13T14:47:49;99180.47;;;8.19;74.01
4814;BME280;15375;48.540;9.268;2023-02-13T14:50:29;99173.09;;;8.20;74.17
4814;BME280;15375;48.540;9.268;2023-02-13T14:52:59;99177.66;;;8.16;74.07
4814;BME280;15375;48.540;9.268;2023-02-13T14:55:35;99180.19;;;8.24;74.42
4814;BME280;15375;48.540;9.268;2023-02-13T14:58:14;99173.22;;;8.08;74.94
4814;BME280;15375;48.540;9.268;2023-02-13T15:00:43;99170.63;;;7.96;75.83
4814;BME280;15375;48.540;9.268;2023-02-13T15:03:47;99184.13;;;7.92;76.39
4814;BME280;15375;48.540;9.268;2023-02-13T15:06:26;99184.63;;;7.63;77.05
4814;BME280;15375;48.540;9.268;2023-02-13T15:08:54;99185.94;;;7.53;78.28
4814;BME280;15375;48.540;9.268;2023-02-13T15:11:38;99189.41;;;7.35;79.80
4814;BME280;15375;48.540;9.268;2023-02-13T15:14:27;99175.72;;;7.16;80.30
4814;BME280;15375;48.540;9.268;2023-02-13T15:17:01;99173.97;;;6.92;81.57
4814;BME280;15375;48.540;9.268;2023-02-13T15:19:30;99175.34;;;6.86;82.79
4814;BME280;15375;48.540;9.268;2023-02-13T15:21:57;99164.91;;;6.72;83.72
4814;BME280;15375;48.540;9.268;2023-02-13T15:24:25;99181.81;;;6.81;83.24
4814;BME280;15375;48.540;9.268;2023-02-13T15:27:02;99172.03;;;6.77;83.73
4814;BME280;15375;48.540;9.268;2023-02-13T15:29:29;99179.06;;;6.66;84.49
4814;BME280;15375;48.540;9.268;2023-02-13T15:31:55;99163.63;;;6.38;86.61
4814;BME280;15375;48.540;9.268;2023-02-13T15:34:28;99176.31;;;6.50;86.23
4814;BME280;15375;48.540;9.268;2023-02-13T15:36:54;99160.59;;;6.28;87.08